sensor_id;sensor_type;location;lat;lon;timestamp;temperature;humidity
4324;DHT22;2175;51.018;6.994;2023-01-23T00:00:13;3.40;99.90
4324;DHT22;2175;51.018;6.994;2023-01-23T00:02:40;3.40;99.90
4324;DHT22;2175;51.018;6.994;2023-01-23T00:05:06;3.30;99.90
4324;DHT22;2175;51.018;6.994;2023-01-23T00:07:31;3.30;99.90
4324;DHT22;2175;51.018;6.994;2023-01-23T00:09:57;3.40;99.90
4324;DHT22;2175;51.018;6.994;2023-01-23T00:12:22;3.30;99.90
4324;DHT22;2175;51.018;6.994;2023-01-23T00:14:48;3.40;99.90
4324;DHT22;2175;51.018;6.994;2023-01-23T00:17:14;3.40;99.90
4324;DHT22;2175;51.018;6.994;2023-01-23T00:19:39;3.40;99.90
4324;DHT22;2175;51.018;6.994;2023-01-23T00:22:05;3.40;99.90
4324;DHT22;2175;51.018;6.994;2023-01-23T00:24:30;3.40;99.90
4324;DHT22;2175;51.018;6.994;2023-01-23T00:26:56;3.40;99.90
4324;DHT22;2175;51.018;6.994;2023-01-23T00:29:22;3.40;99.90
4324;DHT22;2175;51.018;6.994;2023-01-23T00:31:47;3.40;99.90
4324;DHT22;2175;51.018;6.994;2023-01-23T00:34:14;3.40;99.90
4324;DHT22;2175;51.018;6.994;2023-01-23T00:36:41;3.40;99.90
4324;DHT22;2175;51.018;6.994;2023-01-23T00:39:15;3.30;99.90
4324;DHT22;2175;51.018;6.994;2023-01-23T00:41:42;3.30;99.90
4324;DHT22;2175;51.018;6.994;2023-01-23T00:44:07;3.30;99.90
4324;DHT22;2175;51.018;6.994;2023-01-23T00:46:33;3.30;99.90
4324;DHT22;2175;51.018;6.994;2023-01-23T00:48:59;3.30;99.90
4324;DHT22;2175;51.018;6.994;2023-01-23T00:51:25;3.30;99.90
4324;DHT22;2175;51.018;6.994;2023-01-23T00:53:51;3.30;99.90
4324;DHT22;2175;51.018;6.994;2023-01-23T00:56:16;3.30;99.90
4324;DHT22;2175;51.018;6.994;2023-01-23T00:58:42;3.30;99.90
4324;DHT22;2175;51.018;6.994;2023-01-23T01:01:08;3.20;99.90
4324;DHT22;2175;51.018;6.994;2023-01-23T01:03:34;3.20;99.90
4324;DHT22;2175;51.018;6.994;2023-01-23T01:06:00;3.20;99.90
4324;DHT22;2175;51.018;6.994;2023-01-23T01:08:26;3.20;99.90
4324;DHT22;2175;51.018;6.994;2023-01-23T01:10:51;3.20;99.90
4324;DHT22;2175;51.018;6.994;2023-01-23T01:13:18;3.20;99.90
4324;DHT22;2175;51.018;6.994;2023-01-23T01:15:47;3.20;99.90
4324;DHT22;2175;51.018;6.994;2023-01-23T01:18:13;3.20;99.90
4324;DHT22;2175;51.018;6.994;2023-01-23T01:20:42;3.20;99.90
4324;DHT22;2175;51.018;6.994;2023-01-23T01:23:08;3.20;99.90
4324;DHT22;2175;51.018;6.994;2023-01-23T01:25:34;3.20;99.90
4324;DHT22;2175;51.018;6.994;2023-01-23T01:27:59;3.20;99.90
4324;DHT22;2175;51.018;6.994;2023-01-23T01:30:25;3.20;99.90
4324;DHT22;2175;51.018;6.994;2023-01-23T01:32:52;3.20;99.90
4324;DHT22;2175;51.018;6.994;2023-01-23T01:35:19;3.20;99.90
4324;DHT22;2175;51.018;6.994;2023-01-23T01:37:44;3.20;99.90
4324;DHT22;2175;51.018;6.994;2023-01-23T01:40:25;3.20;99.90
4324;DHT22;2175;51.018;6.994;2023-01-23T01:42:57;3.30;99.90
4324;DHT22;2175;51.018;6.994;2023-01-23T01:48:32;3.20;99.90
4324;DHT22;2175;51.018;6.994;2023-01-23T01:51:00;3.20;99.90
4324;DHT22;2175;51.018;6.994;2023-01-23T01:53:28;3.30;99.90
4324;DHT22;2175;51.018;6.994;2023-01-23T01:55:56;3.20;99.90
4324;DHT22;2175;51.018;6.994;2023-01-23T01:58:22;3.30;99.90
4324;DHT22;2175;51.018;6.994;2023-01-23T02:00:48;3.20;99.90
4324;DHT22;2175;51.018;6.994;2023-01-23T02:03:14;3.20;99.90
4324;DHT22;2175;51.018;6.994;2023-01-23T02:05:46;3.20;99.90
4324;DHT22;2175;51.018;6.994;2023-01-23T02:08:26;3.10;99.90
4324;DHT22;2175;51.018;6.994;2023-01-23T02:10:54;3.20;99.90
4324;DHT22;2175;51.018;6.994;2023-01-23T02:13:30;3.20;99.90
4324;DHT22;2175;51.018;6.994;2023-01-23T02:16:05;3.20;99.90
4324;DHT22;2175;51.018;6.994;2023-01-23T02:18:32;3.20;99.90
4324;DHT22;2175;51.018;6.994;2023-01-23T02:21:02;3.20;99.90
4324;DHT22;2175;51.018;6.994;2023-01-23T02:26:34;3.20;99.90
4324;DHT22;2175;51.018;6.994;2023-01-23T02:29:03;3.20;99.90
4324;DHT22;2175;51.018;6.994;2023-01-23T02:31:28;3.20;99.90
4324;DHT22;2175;51.018;6.994;2023-01-23T02:33:57;3.20;99.90
4324;DHT22;2175;51.018;6.994;2023-01-23T02:36:30;3.20;99.90
4324;DHT22;2175;51.018;6.994;2023-01-23T02:39:11;3.20;99.90
4324;DHT22;2175;51.018;6.994;2023-01-23T02:41:43;3.20;99.90
4324;DHT22;2175;51.018;6.994;2023-01-23T02:44:24;3.20;99.90
4324;DHT22;2175;51.018;6.994;2023-01-23T02:46:54;3.20;99.90
4324;DHT22;2175;51.018;6.994;2023-01-23T02:49:20;3.20;99.90
4324;DHT22;2175;51.018;6.994;2023-01-23T02:51:48;3.20;99.90
4324;DHT22;2175;51.018;6.994;2023-01-23T02:54:14;3.20;99.90
4324;DHT22;2175;51.018;6.994;2023-01-23T02:56:40;3.20;99.90
4324;DHT22;2175;51.018;6.994;2023-01-23T02:59:09;3.20;99.90
4324;DHT22;2175;51.018;6.994;2023-01-23T03:01:53;3.20;99.90
4324;DHT22;2175;51.018;6.994;2023-01-23T03:04:19;3.10;99.90
4324;DHT22;2175;51.018;6.994;2023-01-23T03:06:44;3.10;99.90
4324;DHT22;2175;51.018;6.994;2023-01-23T03:09:13;3.00;99.90
4324;DHT22;2175;51.018;6.994;2023-01-23T03:11:41;3.00;99.90
4324;DHT22;2175;51.018;6.994;2023-01-23T03:14:12;2.90;99.90
4324;DHT22;2175;51.018;6.994;2023-01-23T03:16:38;2.90;99.90
4324;DHT22;2175;51.018;6.994;2023-01-23T03:19:08;2.90;99.90
4324;DHT22;2175;51.018;6.994;2023-01-23T03:21:37;2.90;99.90
4324;DHT22;2175;51.018;6.994;2023-01-23T03:24:08;2.80;99.90
4324;DHT22;2175;51.018;6.994;2023-01-23T03:26:37;2.80;99.90
4324;DHT22;2175;51.018;6.994;2023-01-23T03:29:03;2.70;99.90
4324;DHT22;2175;51.018;6.994;2023-01-23T03:31:47;2.70;99.90
4324;DHT22;2175;51.018;6.994;2023-01-23T03:34:12;2.60;99.90
4324;DHT22;2175;51.018;6.994;2023-01-23T03:36:38;2.60;99.90
4324;DHT22;2175;51.018;6.994;2023-01-23T03:39:06;2.50;99.90
4324;DHT22;2175;51.018;6.994;2023-01-23T03:41:51;2.40;99.90
4324;DHT22;2175;51.018;6.994;2023-01-23T03:44:17;2.30;99.90
4324;DHT22;2175;51.018;6.994;2023-01-23T03:46:48;2.30;99.90
4324;DHT22;2175;51.018;6.994;2023-01-23T03:49:14;2.30;99.90
4324;DHT22;2175;51.018;6.994;2023-01-23T03:51:39;2.30;99.90
4324;DHT22;2175;51.018;6.994;2023-01-23T03:54:05;2.40;99.90
4324;DHT22;2175;51.018;6.994;2023-01-23T03:56:30;2.40;99.90
4324;DHT22;2175;51.018;6.994;2023-01-23T03:58:56;2.50;99.90
4324;DHT22;2175;51.018;6.994;2023-01-23T04:01:23;2.50;99.90
4324;DHT22;2175;51.018;6.994;2023-01-23T04:03:49;2.50;99.90
4324;DHT22;2175;51.018;6.994;2023-01-23T04:06:15;2.50;99.90
4324;DHT22;2175;51.018;6.994;2023-01-23T04:08:40;2.50;99.90
4324;DHT22;2175;51.018;6.994;2023-01-23T04:11:08;2.60;99.90
4324;DHT22;2175;51.018;6.994;2023-01-23T04:13:34;2.60;99.90
4324;DHT22;2175;51.018;6.994;2023-01-23T04:16:00;2.50;99.90
4324;DHT22;2175;51.018;6.994;2023-01-23T04:18:26;2.40;99.90
4324;DHT22;2175;51.018;6.994;2023-01-23T04:20:52;2.40;99.90
4324;DHT22;2175;51.018;6.994;2023-01-23T04:23:17;2.30;99.90
4324;DHT22;2175;51.018;6.994;2023-01-23T04:25:43;2.20;99.90
4324;DHT22;2175;51.018;6.994;2023-01-23T04:28:08;2.10;99.90
4324;DHT22;2175;51.018;6.994;2023-01-23T04:30:38;2.10;99.90
4324;DHT22;2175;51.018;6.994;2023-01-23T04:33:04;2.10;99.90
4324;DHT22;2175;51.018;6.994;2023-01-23T04:35:30;2.00;99.90
4324;DHT22;2175;51.018;6.994;2023-01-23T04:37:55;2.00;99.90
4324;DHT22;2175;51.018;6.994;2023-01-23T04:40:21;2.00;99.90
4324;DHT22;2175;51.018;6.994;2023-01-23T04:42:46;2.00;99.90
4324;DHT22;2175;51.018;6.994;2023-01-23T04:45:12;2.00;99.90
4324;DHT22;2175;51.018;6.994;2023-01-23T04:47:38;2.00;99.90
4324;DHT22;2175;51.018;6.994;2023-01-23T04:50:04;1.90;99.90
4324;DHT22;2175;51.018;6.994;2023-01-23T04:52:29;1.90;99.90
4324;DHT22;2175;51.018;6.994;2023-01-23T04:54:55;1.90;99.90
4324;DHT22;2175;51.018;6.994;2023-01-23T04:57:21;2.00;99.90
4324;DHT22;2175;51.018;6.994;2023-01-23T04:59:47;2.00;99.90
4324;DHT22;2175;51.018;6.994;2023-01-23T05:02:12;2.00;99.90
4324;DHT22;2175;51.018;6.994;2023-01-23T05:04:38;2.00;99.90
4324;DHT22;2175;51.018;6.994;2023-01-23T05:07:03;2.00;99.90
4324;DHT22;2175;51.018;6.994;2023-01-23T05:09:29;2.00;99.90
4324;DHT22;2175;51.018;6.994;2023-01-23T05:11:55;1.90;99.90
4324;DHT22;2175;51.018;6.994;2023-01-23T05:14:20;1.80;99.90
4324;DHT22;2175;51.018;6.994;2023-01-23T05:16:48;1.80;99.90
4324;DHT22;2175;51.018;6.994;2023-01-23T05:19:14;1.80;99.90
4324;DHT22;2175;51.018;6.994;2023-01-23T05:21:40;1.80;99.90
4324;DHT22;2175;51.018;6.994;2023-01-23T05:24:06;1.80;99.90
4324;DHT22;2175;51.018;6.994;2023-01-23T05:26:32;1.70;99.90
4324;DHT22;2175;51.018;6.994;2023-01-23T05:32:21;1.60;99.90
4324;DHT22;2175;51.018;6.994;2023-01-23T05:34:47;1.50;99.90
4324;DHT22;2175;51.018;6.994;2023-01-23T05:37:12;1.50;99.90
4324;DHT22;2175;51.018;6.994;2023-01-23T05:39:38;1.40;99.90
4324;DHT22;2175;51.018;6.994;2023-01-23T05:42:04;1.40;99.90
4324;DHT22;2175;51.018;6.994;2023-01-23T05:44:31;1.40;99.90
4324;DHT22;2175;51.018;6.994;2023-01-23T05:47:01;1.40;99.90
4324;DHT22;2175;51.018;6.994;2023-01-23T05:49:27;1.40;99.90
4324;DHT22;2175;51.018;6.994;2023-01-23T05:51:59;1.30;99.90
4324;DHT22;2175;51.018;6.994;2023-01-23T05:54:24;1.40;99.90
4324;DHT22;2175;51.018;6.994;2023-01-23T05:56:57;1.40;99.90
4324;DHT22;2175;51.018;6.994;2023-01-23T05:59:22;1.50;99.90
4324;DHT22;2175;51.018;6.994;2023-01-23T06:01:48;1.50;99.90
4324;DHT22;2175;51.018;6.994;2023-01-23T06:04:14;1.50;99.90
4324;DHT22;2175;51.018;6.994;2023-01-23T06:06:41;1.60;99.90
4324;DHT22;2175;51.018;6.994;2023-01-23T06:12:34;1.50;99.90
4324;DHT22;2175;51.018;6.994;2023-01-23T06:15:00;1.50;99.90
4324;DHT22;2175;51.018;6.994;2023-01-23T06:17:26;1.40;99.90
4324;DHT22;2175;51.018;6.994;2023-01-23T06:19:51;1.40;99.90
4324;DHT22;2175;51.018;6.994;2023-01-23T06:22:17;1.30;99.90
4324;DHT22;2175;51.018;6.994;2023-01-23T06:24:42;1.20;99.90
4324;DHT22;2175;51.018;6.994;2023-01-23T06:27:08;1.10;99.90
4324;DHT22;2175;51.018;6.994;2023-01-23T06:29:37;1.10;99.90
4324;DHT22;2175;51.018;6.994;2023-01-23T06:32:03;1.20;99.90
4324;DHT22;2175;51.018;6.994;2023-01-23T06:34:29;1.20;99.90
4324;DHT22;2175;51.018;6.994;2023-01-23T06:36:54;1.30;99.90
4324;DHT22;2175;51.018;6.994;2023-01-23T06:39:20;1.40;99.90
4324;DHT22;2175;51.018;6.994;2023-01-23T06:41:46;1.30;99.90
4324;DHT22;2175;51.018;6.994;2023-01-23T06:44:11;1.30;99.90
4324;DHT22;2175;51.018;6.994;2023-01-23T06:46:37;1.40;99.90
4324;DHT22;2175;51.018;6.994;2023-01-23T06:49:03;1.40;99.90
4324;DHT22;2175;51.018;6.994;2023-01-23T06:51:29;1.40;99.90
4324;DHT22;2175;51.018;6.994;2023-01-23T06:53:54;1.40;99.90
4324;DHT22;2175;51.018;6.994;2023-01-23T06:56:21;1.40;99.90
4324;DHT22;2175;51.018;6.994;2023-01-23T06:58:47;1.50;99.90
4324;DHT22;2175;51.018;6.994;2023-01-23T07:01:15;1.70;99.90
4324;DHT22;2175;51.018;6.994;2023-01-23T07:03:42;1.70;99.90
4324;DHT22;2175;51.018;6.994;2023-01-23T07:06:10;1.80;99.90
4324;DHT22;2175;51.018;6.994;2023-01-23T07:08:35;1.90;99.90
4324;DHT22;2175;51.018;6.994;2023-01-23T07:11:01;1.90;99.90
4324;DHT22;2175;51.018;6.994;2023-01-23T07:13:27;2.00;99.90
4324;DHT22;2175;51.018;6.994;2023-01-23T07:15:53;2.00;99.90
4324;DHT22;2175;51.018;6.994;2023-01-23T07:18:19;2.00;99.90
4324;DHT22;2175;51.018;6.994;2023-01-23T07:20:46;2.10;99.90
4324;DHT22;2175;51.018;6.994;2023-01-23T07:23:12;2.20;99.90
4324;DHT22;2175;51.018;6.994;2023-01-23T07:25:38;2.30;99.90
4324;DHT22;2175;51.018;6.994;2023-01-23T07:28:04;2.30;99.90
4324;DHT22;2175;51.018;6.994;2023-01-23T07:30:31;2.30;99.90
4324;DHT22;2175;51.018;6.994;2023-01-23T07:32:57;2.30;99.90
4324;DHT22;2175;51.018;6.994;2023-01-23T07:35:23;2.40;99.90
4324;DHT22;2175;51.018;6.994;2023-01-23T07:37:49;2.50;99.90
4324;DHT22;2175;51.018;6.994;2023-01-23T07:40:15;2.50;99.90
4324;DHT22;2175;51.018;6.994;2023-01-23T07:42:40;2.60;99.90
4324;DHT22;2175;51.018;6.994;2023-01-23T07:45:07;2.60;99.90
4324;DHT22;2175;51.018;6.994;2023-01-23T07:47:34;2.70;99.90
4324;DHT22;2175;51.018;6.994;2023-01-23T07:50:00;2.70;99.90
4324;DHT22;2175;51.018;6.994;2023-01-23T07:52:25;2.70;99.90
4324;DHT22;2175;51.018;6.994;2023-01-23T07:54:51;2.70;99.90
4324;DHT22;2175;51.018;6.994;2023-01-23T07:57:16;2.70;99.90
4324;DHT22;2175;51.018;6.994;2023-01-23T07:59:42;2.80;99.90
4324;DHT22;2175;51.018;6.994;2023-01-23T08:02:09;2.80;99.90
4324;DHT22;2175;51.018;6.994;2023-01-23T08:04:35;2.90;99.90
4324;DHT22;2175;51.018;6.994;2023-01-23T08:07:01;2.90;99.90
4324;DHT22;2175;51.018;6.994;2023-01-23T08:09:26;3.00;99.90
4324;DHT22;2175;51.018;6.994;2023-01-23T08:11:52;3.00;99.90
4324;DHT22;2175;51.018;6.994;2023-01-23T08:14:18;3.00;99.90
4324;DHT22;2175;51.018;6.994;2023-01-23T08:16:47;3.00;99.90
4324;DHT22;2175;51.018;6.994;2023-01-23T08:19:12;3.10;99.90
4324;DHT22;2175;51.018;6.994;2023-01-23T08:21:38;3.20;99.90
4324;DHT22;2175;51.018;6.994;2023-01-23T08:24:04;3.10;99.90
4324;DHT22;2175;51.018;6.994;2023-01-23T08:26:29;3.20;99.90
4324;DHT22;2175;51.018;6.994;2023-01-23T08:28:55;3.20;99.90
4324;DHT22;2175;51.018;6.994;2023-01-23T08:31:22;3.20;99.90
4324;DHT22;2175;51.018;6.994;2023-01-23T08:33:48;3.10;99.90
4324;DHT22;2175;51.018;6.994;2023-01-23T08:36:13;3.20;99.90
4324;DHT22;2175;51.018;6.994;2023-01-23T08:38:39;3.20;99.90
4324;DHT22;2175;51.018;6.994;2023-01-23T08:41:05;3.20;99.90
4324;DHT22;2175;51.018;6.994;2023-01-23T08:43:31;3.20;99.90
4324;DHT22;2175;51.018;6.994;2023-01-23T08:45:58;3.20;99.90
4324;DHT22;2175;51.018;6.994;2023-01-23T08:48:25;3.20;99.90
4324;DHT22;2175;51.018;6.994;2023-01-23T08:50:58;3.20;99.90
4324;DHT22;2175;51.018;6.994;2023-01-23T08:53:24;3.30;99.90
4324;DHT22;2175;51.018;6.994;2023-01-23T08:55:50;3.20;99.90
4324;DHT22;2175;51.018;6.994;2023-01-23T08:58:15;3.30;99.90
4324;DHT22;2175;51.018;6.994;2023-01-23T09:00:41;3.30;99.90
4324;DHT22;2175;51.018;6.994;2023-01-23T09:03:08;3.40;99.90
4324;DHT22;2175;51.018;6.994;2023-01-23T09:05:34;3.40;99.90
4324;DHT22;2175;51.018;6.994;2023-01-23T09:08:00;3.40;99.90
4324;DHT22;2175;51.018;6.994;2023-01-23T09:10:25;3.40;99.90
4324;DHT22;2175;51.018;6.994;2023-01-23T09:12:56;3.40;99.90
4324;DHT22;2175;51.018;6.994;2023-01-23T09:15:22;3.40;99.90
4324;DHT22;2175;51.018;6.994;2023-01-23T09:17:48;3.50;99.90
4324;DHT22;2175;51.018;6.994;2023-01-23T09:20:14;3.40;99.90
4324;DHT22;2175;51.018;6.994;2023-01-23T09:22:40;3.50;99.90
4324;DHT22;2175;51.018;6.994;2023-01-23T09:25:06;3.60;99.90
4324;DHT22;2175;51.018;6.994;2023-01-23T09:27:32;3.70;99.90
4324;DHT22;2175;51.018;6.994;2023-01-23T09:29:57;3.70;99.90
4324;DHT22;2175;51.018;6.994;2023-01-23T09:32:23;3.70;99.90
4324;DHT22;2175;51.018;6.994;2023-01-23T09:34:48;3.70;99.90
4324;DHT22;2175;51.018;6.994;2023-01-23T09:37:15;3.70;99.90
4324;DHT22;2175;51.018;6.994;2023-01-23T09:39:44;3.80;99.90
4324;DHT22;2175;51.018;6.994;2023-01-23T09:42:20;3.80;99.90
4324;DHT22;2175;51.018;6.994;2023-01-23T09:44:55;3.90;99.90
4324;DHT22;2175;51.018;6.994;2023-01-23T09:47:25;3.80;99.90
4324;DHT22;2175;51.018;6.994;2023-01-23T09:50:51;3.80;99.90
4324;DHT22;2175;51.018;6.994;2023-01-23T09:53:13;3.80;99.90
4324;DHT22;2175;51.018;6.994;2023-01-23T09:55:49;3.90;99.90
4324;DHT22;2175;51.018;6.994;2023-01-23T09:58:23;3.90;99.90
4324;DHT22;2175;51.018;6.994;2023-01-23T10:00:51;4.00;99.90
4324;DHT22;2175;51.018;6.994;2023-01-23T10:03:17;4.00;99.90
4324;DHT22;2175;51.018;6.994;2023-01-23T10:11:52;4.00;99.90
4324;DHT22;2175;51.018;6.994;2023-01-23T10:25:36;4.10;99.90
4324;DHT22;2175;51.018;6.994;2023-01-23T10:30:59;4.00;99.90
4324;DHT22;2175;51.018;6.994;2023-01-23T10:34:32;4.10;99.90
4324;DHT22;2175;51.018;6.994;2023-01-23T10:36:37;4.20;99.90
4324;DHT22;2175;51.018;6.994;2023-01-23T10:39:13;4.20;99.90
4324;DHT22;2175;51.018;6.994;2023-01-23T10:41:39;4.30;99.90
4324;DHT22;2175;51.018;6.994;2023-01-23T10:44:15;4.40;99.90
4324;DHT22;2175;51.018;6.994;2023-01-23T10:46:49;4.50;99.90
4324;DHT22;2175;51.018;6.994;2023-01-23T10:49:27;4.50;99.90
4324;DHT22;2175;51.018;6.994;2023-01-23T10:51:54;4.50;99.90
4324;DHT22;2175;51.018;6.994;2023-01-23T10:54:24;4.50;99.90
4324;DHT22;2175;51.018;6.994;2023-01-23T10:57:21;4.50;99.90
4324;DHT22;2175;51.018;6.994;2023-01-23T11:02:47;4.70;99.90
4324;DHT22;2175;51.018;6.994;2023-01-23T11:07:59;4.80;99.90
4324;DHT22;2175;51.018;6.994;2023-01-23T11:10:25;4.80;99.90
4324;DHT22;2175;51.018;6.994;2023-01-23T11:12:53;4.70;99.90
4324;DHT22;2175;51.018;6.994;2023-01-23T11:15:22;4.80;99.90
4324;DHT22;2175;51.018;6.994;2023-01-23T11:17:49;4.90;99.90
4324;DHT22;2175;51.018;6.994;2023-01-23T11:20:32;4.90;99.90
4324;DHT22;2175;51.018;6.994;2023-01-23T11:28:03;4.80;99.90
4324;DHT22;2175;51.018;6.994;2023-01-23T11:30:46;4.90;99.90
4324;DHT22;2175;51.018;6.994;2023-01-23T11:38:46;4.90;99.90
4324;DHT22;2175;51.018;6.994;2023-01-23T11:41:13;5.00;99.90
4324;DHT22;2175;51.018;6.994;2023-01-23T11:43:40;5.10;99.90
4324;DHT22;2175;51.018;6.994;2023-01-23T11:48:43;5.10;99.90
4324;DHT22;2175;51.018;6.994;2023-01-23T11:57:00;5.20;99.90
4324;DHT22;2175;51.018;6.994;2023-01-23T12:02:22;5.20;99.90
4324;DHT22;2175;51.018;6.994;2023-01-23T12:07:38;5.10;99.90
4324;DHT22;2175;51.018;6.994;2023-01-23T12:10:22;5.10;99.90
4324;DHT22;2175;51.018;6.994;2023-01-23T12:18:30;5.10;99.90
4324;DHT22;2175;51.018;6.994;2023-01-23T12:23:47;5.40;99.90
4324;DHT22;2175;51.018;6.994;2023-01-23T12:26:20;5.40;99.90
4324;DHT22;2175;51.018;6.994;2023-01-23T12:34:43;5.20;99.90
4324;DHT22;2175;51.018;6.994;2023-01-23T12:42:39;5.40;99.90
4324;DHT22;2175;51.018;6.994;2023-01-23T12:47:52;5.30;99.90
4324;DHT22;2175;51.018;6.994;2023-01-23T12:50:47;5.30;99.90
4324;DHT22;2175;51.018;6.994;2023-01-23T12:53:19;5.30;99.90
4324;DHT22;2175;51.018;6.994;2023-01-23T12:56:00;5.30;99.90
4324;DHT22;2175;51.018;6.994;2023-01-23T12:58:31;5.30;99.90
4324;DHT22;2175;51.018;6.994;2023-01-23T13:03:50;5.40;99.90
4324;DHT22;2175;51.018;6.994;2023-01-23T13:14:43;5.50;99.90
4324;DHT22;2175;51.018;6.994;2023-01-23T13:19:53;5.30;99.90
4324;DHT22;2175;51.018;6.994;2023-01-23T13:22:50;5.40;99.90
4324;DHT22;2175;51.018;6.994;2023-01-23T13:25:18;5.20;99.90
4324;DHT22;2175;51.018;6.994;2023-01-23T13:27:54;5.20;99.90
4324;DHT22;2175;51.018;6.994;2023-01-23T13:46:44;5.20;99.90
4324;DHT22;2175;51.018;6.994;2023-01-23T13:52:19;5.30;99.90
4324;DHT22;2175;51.018;6.994;2023-01-23T13:58:19;5.10;99.90
4324;DHT22;2175;51.018;6.994;2023-01-23T14:01:13;5.10;99.90
4324;DHT22;2175;51.018;6.994;2023-01-23T14:04:17;5.10;99.90
4324;DHT22;2175;51.018;6.994;2023-01-23T14:07:02;5.10;99.90
4324;DHT22;2175;51.018;6.994;2023-01-23T14:09:30;5.10;99.90
4324;DHT22;2175;51.018;6.994;2023-01-23T14:11:59;5.20;99.90
4324;DHT22;2175;51.018;6.994;2023-01-23T14:14:37;5.10;99.90
4324;DHT22;2175;51.018;6.994;2023-01-23T14:17:24;5.10;99.90
4324;DHT22;2175;51.018;6.994;2023-01-23T14:20:10;5.10;99.90
4324;DHT22;2175;51.018;6.994;2023-01-23T14:22:38;5.10;99.90
4324;DHT22;2175;51.018;6.994;2023-01-23T14:25:13;5.10;99.90
4324;DHT22;2175;51.018;6.994;2023-01-23T14:27:40;5.00;99.90
4324;DHT22;2175;51.018;6.994;2023-01-23T14:30:16;5.00;99.90
4324;DHT22;2175;51.018;6.994;2023-01-23T14:32:43;5.00;99.90
4324;DHT22;2175;51.018;6.994;2023-01-23T14:37:52;5.00;99.90
4324;DHT22;2175;51.018;6.994;2023-01-23T14:40:20;5.00;99.90
4324;DHT22;2175;51.018;6.994;2023-01-23T14:42:56;5.00;99.90
4324;DHT22;2175;51.018;6.994;2023-01-23T14:45:23;4.90;99.90
4324;DHT22;2175;51.018;6.994;2023-01-23T14:47:49;4.90;99.90
4324;DHT22;2175;51.018;6.994;2023-01-23T14:50:17;4.80;99.90
4324;DHT22;2175;51.018;6.994;2023-01-23T14:52:44;4.80;99.90
4324;DHT22;2175;51.018;6.994;2023-01-23T14:55:21;4.80;99.90
4324;DHT22;2175;51.018;6.994;2023-01-23T14:57:49;4.80;99.90
4324;DHT22;2175;51.018;6.994;2023-01-23T15:00:16;4.80;99.90
4324;DHT22;2175;51.018;6.994;2023-01-23T15:02:43;4.70;99.90
4324;DHT22;2175;51.018;6.994;2023-01-23T15:13:46;4.60;99.90
4324;DHT22;2175;51.018;6.994;2023-01-23T15:16:34;4.60;99.90
4324;DHT22;2175;51.018;6.994;2023-01-23T15:19:20;4.60;99.90
4324;DHT22;2175;51.018;6.994;2023-01-23T15:21:46;4.60;99.90
4324;DHT22;2175;51.018;6.994;2023-01-23T15:24:27;4.50;99.90
4324;DHT22;2175;51.018;6.994;2023-01-23T15:29:19;4.50;99.90
4324;DHT22;2175;51.018;6.994;2023-01-23T15:31:48;4.40;99.90
4324;DHT22;2175;51.018;6.994;2023-01-23T15:36:46;4.40;99.90
4324;DHT22;2175;51.018;6.994;2023-01-23T15:42:03;4.40;99.90
4324;DHT22;2175;51.018;6.994;2023-01-23T15:44:31;4.40;99.90
4324;DHT22;2175;51.018;6.994;2023-01-23T15:46:57;4.40;99.90
4324;DHT22;2175;51.018;6.994;2023-01-23T15:49:26;4.40;99.90
4324;DHT22;2175;51.018;6.994;2023-01-23T15:52:00;4.40;99.90
4324;DHT22;2175;51.018;6.994;2023-01-23T15:54:36;4.40;99.90
4324;DHT22;2175;51.018;6.994;2023-01-23T15:57:02;4.40;99.90
4324;DHT22;2175;51.018;6.994;2023-01-23T15:59:29;4.40;99.90
4324;DHT22;2175;51.018;6.994;2023-01-23T16:01:57;4.40;99.90
4324;DHT22;2175;51.018;6.994;2023-01-23T16:04:22;4.40;99.90
4324;DHT22;2175;51.018;6.994;2023-01-23T16:06:48;4.40;99.90
4324;DHT22;2175;51.018;6.994;2023-01-23T16:09:22;4.30;99.90
4324;DHT22;2175;51.018;6.994;2023-01-23T16:11:50;4.30;99.90
4324;DHT22;2175;51.018;6.994;2023-01-23T16:14:18;4.30;99.90
4324;DHT22;2175;51.018;6.994;2023-01-23T16:16:44;4.30;99.90
4324;DHT22;2175;51.018;6.994;2023-01-23T16:19:10;4.30;99.90
4324;DHT22;2175;51.018;6.994;2023-01-23T16:21:36;4.30;99.90
4324;DHT22;2175;51.018;6.994;2023-01-23T16:24:02;4.30;99.90
4324;DHT22;2175;51.018;6.994;2023-01-23T16:26:28;4.30;99.90
4324;DHT22;2175;51.018;6.994;2023-01-23T16:28:56;4.30;99.90
4324;DHT22;2175;51.018;6.994;2023-01-23T16:31:22;4.30;99.90
4324;DHT22;2175;51.018;6.994;2023-01-23T16:33:49;4.20;99.90
4324;DHT22;2175;51.018;6.994;2023-01-23T16:36:18;4.20;99.90
4324;DHT22;2175;51.018;6.994;2023-01-23T16:38:50;4.20;99.90
4324;DHT22;2175;51.018;6.994;2023-01-23T16:41:18;4.20;99.90
4324;DHT22;2175;51.018;6.994;2023-01-23T16:43:44;4.20;99.90
4324;DHT22;2175;51.018;6.994;2023-01-23T16:46:10;4.10;99.90
4324;DHT22;2175;51.018;6.994;2023-01-23T16:48:37;4.10;99.90
4324;DHT22;2175;51.018;6.994;2023-01-23T16:53:41;4.10;99.90
4324;DHT22;2175;51.018;6.994;2023-01-23T16:56:17;4.10;99.90
4324;DHT22;2175;51.018;6.994;2023-01-23T16:58:43;4.10;99.90
4324;DHT22;2175;51.018;6.994;2023-01-23T17:01:15;4.10;99.90
4324;DHT22;2175;51.018;6.994;2023-01-23T17:03:42;4.20;99.90
4324;DHT22;2175;51.018;6.994;2023-01-23T17:06:13;4.10;99.90
4324;DHT22;2175;51.018;6.994;2023-01-23T17:08:40;4.10;99.90
4324;DHT22;2175;51.018;6.994;2023-01-23T17:11:06;4.10;99.90
4324;DHT22;2175;51.018;6.994;2023-01-23T17:13:32;4.10;99.90
4324;DHT22;2175;51.018;6.994;2023-01-23T17:16:01;4.10;99.90
4324;DHT22;2175;51.018;6.994;2023-01-23T17:18:32;4.10;99.90
4324;DHT22;2175;51.018;6.994;2023-01-23T17:20:59;4.10;99.90
4324;DHT22;2175;51.018;6.994;2023-01-23T17:23:25;4.10;99.90
4324;DHT22;2175;51.018;6.994;2023-01-23T17:25:51;4.10;99.90
4324;DHT22;2175;51.018;6.994;2023-01-23T17:28:18;4.10;99.90
4324;DHT22;2175;51.018;6.994;2023-01-23T17:30:46;4.10;99.90
4324;DHT22;2175;51.018;6.994;2023-01-23T17:33:29;4.10;99.90
4324;DHT22;2175;51.018;6.994;2023-01-23T17:35:55;4.10;99.90
4324;DHT22;2175;51.018;6.994;2023-01-23T17:38:23;4.20;99.90
4324;DHT22;2175;51.018;6.994;2023-01-23T17:40:50;4.20;99.90
4324;DHT22;2175;51.018;6.994;2023-01-23T17:43:17;4.20;99.90
4324;DHT22;2175;51.018;6.994;2023-01-23T17:45:44;4.20;99.90
4324;DHT22;2175;51.018;6.994;2023-01-23T17:48:16;4.20;99.90
4324;DHT22;2175;51.018;6.994;2023-01-23T17:50:44;4.20;99.90
4324;DHT22;2175;51.018;6.994;2023-01-23T17:53:14;4.20;99.90
4324;DHT22;2175;51.018;6.994;2023-01-23T17:55:40;4.20;99.90
4324;DHT22;2175;51.018;6.994;2023-01-23T17:58:11;4.20;99.90
4324;DHT22;2175;51.018;6.994;2023-01-23T18:00:37;4.30;99.90
4324;DHT22;2175;51.018;6.994;2023-01-23T18:03:05;4.30;99.90
4324;DHT22;2175;51.018;6.994;2023-01-23T18:05:31;4.30;99.90
4324;DHT22;2175;51.018;6.994;2023-01-23T18:07:57;4.20;99.90
4324;DHT22;2175;51.018;6.994;2023-01-23T18:10:23;4.10;99.90
4324;DHT22;2175;51.018;6.994;2023-01-23T18:18:33;4.20;99.90
4324;DHT22;2175;51.018;6.994;2023-01-23T18:21:01;4.10;99.90
4324;DHT22;2175;51.018;6.994;2023-01-23T18:23:28;4.20;99.90
4324;DHT22;2175;51.018;6.994;2023-01-23T18:31:42;4.30;99.90
4324;DHT22;2175;51.018;6.994;2023-01-23T18:45:13;4.30;99.90
4324;DHT22;2175;51.018;6.994;2023-01-23T18:47:39;4.30;99.90
4324;DHT22;2175;51.018;6.994;2023-01-23T18:50:06;4.30;99.90
4324;DHT22;2175;51.018;6.994;2023-01-23T19:03:03;4.20;99.90
4324;DHT22;2175;51.018;6.994;2023-01-23T19:05:30;4.20;99.90
4324;DHT22;2175;51.018;6.994;2023-01-23T19:07:57;4.20;99.90
4324;DHT22;2175;51.018;6.994;2023-01-23T19:10:26;4.10;99.90
4324;DHT22;2175;51.018;6.994;2023-01-23T19:13:12;4.10;99.90
4324;DHT22;2175;51.018;6.994;2023-01-23T19:21:06;4.10;99.90
4324;DHT22;2175;51.018;6.994;2023-01-23T19:23:45;4.10;99.90
4324;DHT22;2175;51.018;6.994;2023-01-23T19:26:13;4.10;99.90
4324;DHT22;2175;51.018;6.994;2023-01-23T19:28:39;4.10;99.90